地図

経路データ

SID SEASON NUMBER BASIN SUBBASIN NAME ISO_TIME NATURE LAT LON WMO_WIND WMO_PRES WMO_AGENCY TRACK_TYPE DIST2LAND LANDFALL IFLAG USA_AGENCY USA_ATCF_ID USA_LAT USA_LON USA_RECORD USA_STATUS USA_WIND USA_PRES USA_SSHS USA_R34_NE USA_R34_SE USA_R34_SW USA_R34_NW USA_R50_NE USA_R50_SE USA_R50_SW USA_R50_NW USA_R64_NE USA_R64_SE USA_R64_SW USA_R64_NW USA_POCI USA_ROCI USA_RMW USA_EYE TOKYO_LAT TOKYO_LON TOKYO_GRADE TOKYO_WIND TOKYO_PRES TOKYO_R50_DIR TOKYO_R50_LONG TOKYO_R50_SHORT TOKYO_R30_DIR TOKYO_R30_LONG TOKYO_R30_SHORT TOKYO_LAND CMA_LAT CMA_LON CMA_CAT CMA_WIND CMA_PRES HKO_LAT HKO_LON HKO_CAT HKO_WIND HKO_PRES NEWDELHI_LAT NEWDELHI_LON NEWDELHI_GRADE NEWDELHI_WIND NEWDELHI_PRES NEWDELHI_CI NEWDELHI_DP NEWDELHI_POCI REUNION_LAT REUNION_LON REUNION_TYPE REUNION_WIND REUNION_PRES REUNION_TNUM REUNION_CI REUNION_RMW REUNION_R34_NE REUNION_R34_SE REUNION_R34_SW REUNION_R34_NW REUNION_R50_NE REUNION_R50_SE REUNION_R50_SW REUNION_R50_NW REUNION_R64_NE REUNION_R64_SE REUNION_R64_SW REUNION_R64_NW BOM_LAT BOM_LON BOM_TYPE BOM_WIND BOM_PRES BOM_TNUM BOM_CI BOM_RMW BOM_R34_NE BOM_R34_SE BOM_R34_SW BOM_R34_NW BOM_R50_NE BOM_R50_SE BOM_R50_SW BOM_R50_NW BOM_R64_NE BOM_R64_SE BOM_R64_SW BOM_R64_NW BOM_ROCI BOM_POCI BOM_EYE BOM_POS_METHOD BOM_PRES_METHOD NADI_LAT NADI_LON NADI_CAT NADI_WIND NADI_PRES WELLINGTON_LAT WELLINGTON_LON WELLINGTON_WIND WELLINGTON_PRES DS824_LAT DS824_LON DS824_STAGE DS824_WIND DS824_PRES TD9636_LAT TD9636_LON TD9636_STAGE TD9636_WIND TD9636_PRES TD9635_LAT TD9635_LON TD9635_WIND TD9635_PRES TD9635_ROCI NEUMANN_LAT NEUMANN_LON NEUMANN_CLASS NEUMANN_WIND NEUMANN_PRES MLC_LAT MLC_LON MLC_CLASS MLC_WIND MLC_PRES USA_GUST BOM_GUST BOM_GUST_PER REUNION_GUST REUNION_GUST_PER USA_SEAHGT USA_SEARAD_NE USA_SEARAD_SE USA_SEARAD_SW USA_SEARAD_NW STORM_SPEED STORM_DIR
1938332N10131 1938 68 WP MM NOT_NAMED 1938-11-28 10:00:00 NR 9.90000 130.500 main 477 445 __________O___ -1 9.90000 130.500 7 8 274
1938332N10131 1938 68 WP MM NOT_NAMED 1938-11-28 12:00:00 NR 9.92015 130.234 main 445 405 __________P___ -1 9.92015 130.234 7 8 276
1938332N10131 1938 68 WP MM NOT_NAMED 1938-11-28 15:00:00 NR 9.96767 129.815 main 405 354 __________P___ -1 9.96767 129.815 7 9 279
1938332N10131 1938 68 WP MM NOT_NAMED 1938-11-28 18:00:00 NR 10.0601 129.348 main 354 306 __________P___ -1 10.0601 129.348 7 10 284
1938332N10131 1938 68 WP MM NOT_NAMED 1938-11-28 21:00:00 NR 10.2246 128.804 main 306 290 __________P___ -1 10.2246 128.804 7 12 288
1938332N10131 1938 68 WP MM NOT_NAMED 1938-11-28 22:00:00 NR 10.3000 128.600 main 290 263 __________O___ -1 10.3000 128.600 2 14 292
1938332N10131 1938 68 WP MM NOT_NAMED 1938-11-29 00:00:00 NR 10.4844 128.156 main 263 176 __________P___ -1 10.4844 128.156 2 15 294
1938332N10131 1938 68 WP MM NOT_NAMED 1938-11-29 03:00:00 NR 10.8242 127.419 main 176 90 __________P___ -1 10.8242 127.419 2 17 296
1938332N10131 1938 68 WP MM NOT_NAMED 1938-11-29 06:00:00 NR 11.2033 126.637 main 90 34 __________P___ -1 11.2033 126.637 2 17 296
1938332N10131 1938 68 WP MM NOT_NAMED 1938-11-29 09:00:00 NR 11.5812 125.854 main 39 10 __________P___ -1 11.5812 125.854 2 17 296
1938332N10131 1938 68 WP MM NOT_NAMED 1938-11-29 10:00:00 NR 11.7000 125.600 main 10 0 __________O___ -1 11.7000 125.600 2 16 294
1938332N10131 1938 68 WP MM NOT_NAMED 1938-11-29 12:00:00 NR 11.9027 125.122 main 0 0 __________P___ -1 11.9027 125.122 2 15 293
1938332N10131 1938 68 WP MM NOT_NAMED 1938-11-29 15:00:00 NR 12.1882 124.424 main 0 0 __________P___ -1 12.1882 124.424 2 15 292
1938332N10131 1938 68 WP MM NOT_NAMED 1938-11-29 18:00:00 NR 12.4570 123.752 main 22 10 __________P___ -1 12.4570 123.752 2 14 292
1938332N10131 1938 68 WP MM NOT_NAMED 1938-11-29 21:00:00 NR 12.7152 123.108 main 31 31 __________P___ -1 12.7152 123.108 2 14 292
1938332N10131 1938 68 WP MM NOT_NAMED 1938-11-29 22:00:00 NR 12.8000 122.900 main 48 22 __________O___ -1 12.8000 122.900 2 13 294
1938332N10131 1938 68 WP MM NOT_NAMED 1938-11-30 00:00:00 NR 12.9822 122.501 main 24 24 __________P___ -1 12.9822 122.501 2 13 295
1938332N10131 1938 68 WP MM NOT_NAMED 1938-11-30 03:00:00 NR 13.2499 121.929 main 48 15 __________P___ -1 13.2499 121.929 2 12 295
1938332N10131 1938 68 WP MM NOT_NAMED 1938-11-30 06:00:00 NR 13.5026 121.368 main 15 0 __________P___ -1 13.5026 121.368 2 12 294
1938332N10131 1938 68 WP MM NOT_NAMED 1938-11-30 09:00:00 NR 13.7309 120.797 main 10 0 __________P___ -1 13.7309 120.797 2 12 292
1938332N10131 1938 68 WP MM NOT_NAMED 1938-11-30 10:00:00 NR 13.8000 120.600 main 0 0 __________O___ -1 13.8000 120.600 2 13 288
1938332N10131 1938 68 WP MM NOT_NAMED 1938-11-30 12:00:00 NR 13.9389 120.152 main 43 53 __________P___ -1 13.9389 120.152 2 14 286
1938332N10131 1938 68 WP MM NOT_NAMED 1938-11-30 15:00:00 NR 14.1224 119.461 main 101 108 __________P___ -1 14.1224 119.461 2 14 284
1938332N10131 1938 68 WP MM NOT_NAMED 1938-11-30 18:00:00 NR 14.2699 118.788 main 150 150 __________P___ -1 14.2699 118.788 2 13 282
1938332N10131 1938 68 WP MM NOT_NAMED 1938-11-30 21:00:00 NR 14.3753 118.180 main 209 219 __________P___ -1 14.3753 118.180 2 12 280
1938332N10131 1938 68 WP MM NOT_NAMED 1938-11-30 22:00:00 NR 14.4000 118.000 main 230 230 __________O___ -1 14.4000 118.000 2 9 278
1938332N10131 1938 68 WP MM NOT_NAMED 1938-12-01 00:00:00 NR 14.4360 117.706 main 261 261 __________P___ -1 14.4360 117.706 2 8 275
1938332N10131 1938 68 WP MM NOT_NAMED 1938-12-01 03:00:00 NR 14.4530 117.340 main 297 297 __________P___ -1 14.4530 117.340 2 7 270
1938332N10131 1938 68 WP MM NOT_NAMED 1938-12-01 06:00:00 NR 14.4393 117.025 main 331 331 __________P___ -1 14.4393 117.025 2 6 266
1938332N10131 1938 68 WP MM NOT_NAMED 1938-12-01 09:00:00 NR 14.4104 116.712 main 361 361 __________P___ -1 14.4104 116.712 2 6 265
1938332N10131 1938 68 WP MM NOT_NAMED 1938-12-01 10:00:00 NR 14.4000 116.600 main 371 371 __________O___ -1 14.4000 116.600 2 7 269
1938332N10131 1938 68 WP MM NOT_NAMED 1938-12-01 12:00:00 NR 14.4046 116.347 main 402 402 __________P___ -1 14.4046 116.347 2 8 271
1938332N10131 1938 68 WP MM NOT_NAMED 1938-12-01 15:00:00 NR 14.4055 115.949 main 444 444 __________P___ -1 14.4055 115.949 2 8 269
1938332N10131 1938 68 WP MM NOT_NAMED 1938-12-01 18:00:00 NR 14.3857 115.523 main 485 485 __________P___ -1 14.3857 115.523 2 9 265
1938332N10131 1938 68 WP MM NOT_NAMED 1938-12-01 21:00:00 NR 14.3295 115.062 main 529 539 __________P___ -1 14.3295 115.062 2 9 262
1938332N10131 1938 68 WP MM NOT_NAMED 1938-12-01 22:00:00 NR 14.3000 114.900 main 549 549 __________O___ -1 14.3000 114.900 3 10 258
1938332N10131 1938 68 WP MM NOT_NAMED 1938-12-02 00:00:00 NR 14.2255 114.562 main 570 505 __________P___ -1 14.2255 114.562 3 11 255
1938332N10131 1938 68 WP MM NOT_NAMED 1938-12-02 03:00:00 NR 14.0760 114.023 main 505 447 __________P___ -1 14.0760 114.023 3 11 253
1938332N10131 1938 68 WP MM NOT_NAMED 1938-12-02 06:00:00 NR 13.8896 113.460 main 447 378 __________P___ -1 13.8896 113.460 3 12 250
1938332N10131 1938 68 WP MM NOT_NAMED 1938-12-02 09:00:00 NR 13.6757 112.889 main 378 355 __________P___ -1 13.6757 112.889 3 12 249
1938332N10131 1938 68 WP MM NOT_NAMED 1938-12-02 10:00:00 NR 13.6000 112.700 main 355 308 __________O___ -1 13.6000 112.700 4 12 247
1938332N10131 1938 68 WP MM NOT_NAMED 1938-12-02 12:00:00 NR 13.4437 112.325 main 308 251 __________P___ -1 13.4437 112.325 4 12 246
1938332N10131 1938 68 WP MM NOT_NAMED 1938-12-02 15:00:00 NR 13.1993 111.770 main 251 184 __________P___ -1 13.1993 111.770 4 12 245
1938332N10131 1938 68 WP MM NOT_NAMED 1938-12-02 18:00:00 NR 12.9459 111.223 main 184 130 __________P___ -1 12.9459 111.223 4 12 244
1938332N10131 1938 68 WP MM NOT_NAMED 1938-12-02 21:00:00 NR 12.6870 110.680 main 130 108 __________P___ -1 12.6870 110.680 4 12 244
1938332N10131 1938 68 WP MM NOT_NAMED 1938-12-02 22:00:00 NR 12.6000 110.500 main 108 __________O___ -1 12.6000 110.500 4 12 244

デジタル台風データ・検索

IBTrACS Databaseについて

本データベースは、米国NOAAが公開する1842年以降の世界の熱帯低気圧のベストトラックデータアーカイブInternational Best Track Archive for Climate Stewardship (IBTrACS)を、ウェブで閲覧しやすい形式に変換したものです。

最終更新日:2021-10-21